sensor_id;sensor_type;location;lat;lon;timestamp;P1;durP1;ratioP1;P2;durP2;ratioP2
62475;SDS011;50739;45.670;11.936;2023-06-26T00:02:53;7.45;;;5.03;;
62475;SDS011;50739;45.670;11.936;2023-06-26T00:07:55;7.22;;;5.50;;
62475;SDS011;50739;45.670;11.936;2023-06-26T00:13:02;7.28;;;4.82;;
62475;SDS011;50739;45.670;11.936;2023-06-26T00:18:04;8.60;;;4.93;;
62475;SDS011;50739;45.670;11.936;2023-06-26T00:23:07;9.73;;;5.38;;
62475;SDS011;50739;45.670;11.936;2023-06-26T00:28:10;7.30;;;4.38;;
62475;SDS011;50739;45.670;11.936;2023-06-26T00:33:13;6.80;;;5.17;;
62475;SDS011;50739;45.670;11.936;2023-06-26T00:38:16;8.30;;;5.40;;
62475;SDS011;50739;45.670;11.936;2023-06-26T00:43:20;9.98;;;5.22;;
62475;SDS011;50739;45.670;11.936;2023-06-26T00:48:22;7.53;;;4.90;;
62475;SDS011;50739;45.670;11.936;2023-06-26T00:53:25;8.02;;;5.30;;
62475;SDS011;50739;45.670;11.936;2023-06-26T00:58:29;8.77;;;5.97;;
62475;SDS011;50739;45.670;11.936;2023-06-26T01:03:31;9.38;;;6.03;;
62475;SDS011;50739;45.670;11.936;2023-06-26T01:08:33;8.40;;;6.03;;
62475;SDS011;50739;45.670;11.936;2023-06-26T01:13:37;9.02;;;6.03;;
62475;SDS011;50739;45.670;11.936;2023-06-26T01:18:41;7.90;;;5.80;;
62475;SDS011;50739;45.670;11.936;2023-06-26T01:23:49;8.60;;;5.88;;
62475;SDS011;50739;45.670;11.936;2023-06-26T01:29:06;9.55;;;6.40;;
62475;SDS011;50739;45.670;11.936;2023-06-26T01:34:11;9.80;;;6.47;;
62475;SDS011;50739;45.670;11.936;2023-06-26T01:39:15;11.73;;;6.78;;
62475;SDS011;50739;45.670;11.936;2023-06-26T01:44:23;10.38;;;6.60;;
62475;SDS011;50739;45.670;11.936;2023-06-26T01:49:31;9.90;;;6.67;;
62475;SDS011;50739;45.670;11.936;2023-06-26T01:54:42;8.82;;;6.38;;
62475;SDS011;50739;45.670;11.936;2023-06-26T01:59:53;9.88;;;6.35;;
62475;SDS011;50739;45.670;11.936;2023-06-26T02:04:57;11.07;;;6.78;;
62475;SDS011;50739;45.670;11.936;2023-06-26T02:09:59;7.57;;;6.38;;
62475;SDS011;50739;45.670;11.936;2023-06-26T02:15:03;8.17;;;5.87;;
62475;SDS011;50739;45.670;11.936;2023-06-26T02:20:07;7.50;;;5.43;;
62475;SDS011;50739;45.670;11.936;2023-06-26T02:25:10;6.70;;;5.18;;
62475;SDS011;50739;45.670;11.936;2023-06-26T02:30:14;9.97;;;5.60;;
62475;SDS011;50739;45.670;11.936;2023-06-26T02:35:17;6.00;;;5.27;;
62475;SDS011;50739;45.670;11.936;2023-06-26T02:40:19;6.70;;;4.72;;
62475;SDS011;50739;45.670;11.936;2023-06-26T02:45:23;6.72;;;4.95;;
62475;SDS011;50739;45.670;11.936;2023-06-26T02:50:25;7.45;;;4.68;;
62475;SDS011;50739;45.670;11.936;2023-06-26T02:55:28;6.27;;;4.13;;
62475;SDS011;50739;45.670;11.936;2023-06-26T03:00:32;6.78;;;4.38;;
62475;SDS011;50739;45.670;11.936;2023-06-26T03:05:34;6.72;;;4.32;;
62475;SDS011;50739;45.670;11.936;2023-06-26T03:10:36;5.73;;;4.57;;
62475;SDS011;50739;45.670;11.936;2023-06-26T03:15:40;6.50;;;4.60;;
62475;SDS011;50739;45.670;11.936;2023-06-26T03:20:42;7.70;;;4.50;;
62475;SDS011;50739;45.670;11.936;2023-06-26T03:25:45;6.60;;;4.65;;
62475;SDS011;50739;45.670;11.936;2023-06-26T03:30:49;6.50;;;4.63;;
62475;SDS011;50739;45.670;11.936;2023-06-26T03:35:51;6.40;;;4.50;;
62475;SDS011;50739;45.670;11.936;2023-06-26T03:40:54;8.40;;;4.38;;
62475;SDS011;50739;45.670;11.936;2023-06-26T03:45:58;6.00;;;4.53;;
62475;SDS011;50739;45.670;11.936;2023-06-26T03:51:00;6.75;;;4.55;;
62475;SDS011;50739;45.670;11.936;2023-06-26T03:56:03;6.85;;;4.65;;
62475;SDS011;50739;45.670;11.936;2023-06-26T04:01:07;6.30;;;4.40;;
62475;SDS011;50739;45.670;11.936;2023-06-26T04:06:09;7.22;;;5.03;;
62475;SDS011;50739;45.670;11.936;2023-06-26T04:11:12;7.40;;;5.90;;
62475;SDS011;50739;45.670;11.936;2023-06-26T04:16:16;7.97;;;5.40;;
62475;SDS011;50739;45.670;11.936;2023-06-26T04:21:18;7.32;;;5.57;;
62475;SDS011;50739;45.670;11.936;2023-06-26T04:26:20;6.43;;;5.10;;
62475;SDS011;50739;45.670;11.936;2023-06-26T04:31:24;7.13;;;4.65;;
62475;SDS011;50739;45.670;11.936;2023-06-26T04:36:26;5.40;;;4.47;;
62475;SDS011;50739;45.670;11.936;2023-06-26T04:41:30;6.75;;;4.53;;
62475;SDS011;50739;45.670;11.936;2023-06-26T04:46:33;5.95;;;4.55;;
62475;SDS011;50739;45.670;11.936;2023-06-26T04:51:36;5.25;;;4.10;;
62475;SDS011;50739;45.670;11.936;2023-06-26T04:56:41;5.65;;;4.30;;
62475;SDS011;50739;45.670;11.936;2023-06-26T05:01:45;6.28;;;4.18;;
62475;SDS011;50739;45.670;11.936;2023-06-26T05:06:48;6.13;;;4.72;;
62475;SDS011;50739;45.670;11.936;2023-06-26T05:11:51;6.10;;;4.40;;
62475;SDS011;50739;45.670;11.936;2023-06-26T05:16:54;6.40;;;4.43;;
62475;SDS011;50739;45.670;11.936;2023-06-26T05:21:57;6.53;;;4.47;;
62475;SDS011;50739;45.670;11.936;2023-06-26T05:27:02;7.70;;;5.30;;
62475;SDS011;50739;45.670;11.936;2023-06-26T05:32:07;6.80;;;4.17;;
62475;SDS011;50739;45.670;11.936;2023-06-26T05:37:10;8.10;;;5.37;;
62475;SDS011;50739;45.670;11.936;2023-06-26T05:42:18;8.10;;;5.72;;
62475;SDS011;50739;45.670;11.936;2023-06-26T05:47:22;8.00;;;5.40;;
62475;SDS011;50739;45.670;11.936;2023-06-26T05:52:25;10.50;;;5.30;;
62475;SDS011;50739;45.670;11.936;2023-06-26T05:57:28;8.90;;;5.57;;
62475;SDS011;50739;45.670;11.936;2023-06-26T06:02:32;9.77;;;5.75;;
62475;SDS011;50739;45.670;11.936;2023-06-26T06:07:36;8.23;;;5.30;;
62475;SDS011;50739;45.670;11.936;2023-06-26T06:12:38;8.88;;;5.25;;
62475;SDS011;50739;45.670;11.936;2023-06-26T06:17:42;7.37;;;5.40;;
62475;SDS011;50739;45.670;11.936;2023-06-26T06:22:44;7.25;;;5.63;;
62475;SDS011;50739;45.670;11.936;2023-06-26T06:27:48;7.55;;;5.43;;
62475;SDS011;50739;45.670;11.936;2023-06-26T06:32:53;7.73;;;5.20;;
62475;SDS011;50739;45.670;11.936;2023-06-26T06:37:55;7.10;;;4.97;;
62475;SDS011;50739;45.670;11.936;2023-06-26T06:42:57;8.23;;;5.00;;
62475;SDS011;50739;45.670;11.936;2023-06-26T06:48:01;6.13;;;5.10;;
62475;SDS011;50739;45.670;11.936;2023-06-26T06:53:04;7.53;;;5.38;;
62475;SDS011;50739;45.670;11.936;2023-06-26T06:58:06;6.25;;;4.93;;
62475;SDS011;50739;45.670;11.936;2023-06-26T07:03:10;9.60;;;4.80;;
62475;SDS011;50739;45.670;11.936;2023-06-26T07:08:12;9.13;;;4.78;;
62475;SDS011;50739;45.670;11.936;2023-06-26T07:13:15;7.90;;;5.03;;
62475;SDS011;50739;45.670;11.936;2023-06-26T07:18:19;7.10;;;4.90;;
62475;SDS011;50739;45.670;11.936;2023-06-26T07:23:21;6.70;;;5.07;;
62475;SDS011;50739;45.670;11.936;2023-06-26T07:28:24;8.88;;;5.03;;
62475;SDS011;50739;45.670;11.936;2023-06-26T07:33:28;7.80;;;4.90;;
62475;SDS011;50739;45.670;11.936;2023-06-26T07:38:30;8.85;;;5.18;;
62475;SDS011;50739;45.670;11.936;2023-06-26T07:43:33;6.70;;;4.97;;
62475;SDS011;50739;45.670;11.936;2023-06-26T07:48:37;7.23;;;4.97;;
62475;SDS011;50739;45.670;11.936;2023-06-26T07:53:39;9.52;;;4.88;;
62475;SDS011;50739;45.670;11.936;2023-06-26T07:58:41;6.85;;;4.65;;
62475;SDS011;50739;45.670;11.936;2023-06-26T08:03:45;5.73;;;4.37;;
62475;SDS011;50739;45.670;11.936;2023-06-26T08:08:48;7.20;;;4.50;;
62475;SDS011;50739;45.670;11.936;2023-06-26T08:13:50;7.43;;;4.90;;
62475;SDS011;50739;45.670;11.936;2023-06-26T08:18:54;6.40;;;4.03;;
62475;SDS011;50739;45.670;11.936;2023-06-26T08:23:56;9.07;;;4.80;;
62475;SDS011;50739;45.670;11.936;2023-06-26T08:28:58;5.25;;;3.95;;
62475;SDS011;50739;45.670;11.936;2023-06-26T08:34:02;6.25;;;4.55;;
62475;SDS011;50739;45.670;11.936;2023-06-26T08:39:05;5.93;;;4.80;;
62475;SDS011;50739;45.670;11.936;2023-06-26T08:44:09;8.00;;;4.80;;
62475;SDS011;50739;45.670;11.936;2023-06-26T08:49:14;7.88;;;4.85;;
62475;SDS011;50739;45.670;11.936;2023-06-26T08:54:21;8.07;;;4.75;;
62475;SDS011;50739;45.670;11.936;2023-06-26T08:59:29;7.03;;;4.70;;
62475;SDS011;50739;45.670;11.936;2023-06-26T09:04:33;5.70;;;4.32;;
62475;SDS011;50739;45.670;11.936;2023-06-26T09:09:36;5.90;;;4.27;;
62475;SDS011;50739;45.670;11.936;2023-06-26T09:14:39;5.45;;;4.38;;
62475;SDS011;50739;45.670;11.936;2023-06-26T09:19:46;5.97;;;4.43;;
62475;SDS011;50739;45.670;11.936;2023-06-26T09:24:50;4.38;;;3.58;;
62475;SDS011;50739;45.670;11.936;2023-06-26T09:29:53;11.40;;;4.45;;
62475;SDS011;50739;45.670;11.936;2023-06-26T09:34:58;12.15;;;4.50;;
62475;SDS011;50739;45.670;11.936;2023-06-26T09:40:00;5.70;;;4.13;;
62475;SDS011;50739;45.670;11.936;2023-06-26T09:45:03;5.97;;;4.40;;
62475;SDS011;50739;45.670;11.936;2023-06-26T09:50:08;5.05;;;4.47;;
62475;SDS011;50739;45.670;11.936;2023-06-26T09:55:23;7.30;;;4.32;;
62475;SDS011;50739;45.670;11.936;2023-06-26T10:00:26;6.13;;;4.22;;
62475;SDS011;50739;45.670;11.936;2023-06-26T10:05:30;6.40;;;4.50;;
62475;SDS011;50739;45.670;11.936;2023-06-26T10:10:33;6.25;;;4.68;;
62475;SDS011;50739;45.670;11.936;2023-06-26T10:15:37;5.33;;;4.27;;
62475;SDS011;50739;45.670;11.936;2023-06-26T10:20:43;6.22;;;4.47;;
62475;SDS011;50739;45.670;11.936;2023-06-26T10:25:49;5.47;;;4.15;;
62475;SDS011;50739;45.670;11.936;2023-06-26T10:30:53;6.72;;;4.40;;
62475;SDS011;50739;45.670;11.936;2023-06-26T10:41:21;8.13;;;4.20;;
62475;SDS011;50739;45.670;11.936;2023-06-26T10:46:25;8.35;;;4.28;;
62475;SDS011;50739;45.670;11.936;2023-06-26T10:51:29;6.95;;;4.28;;
62475;SDS011;50739;45.670;11.936;2023-06-26T10:56:40;13.75;;;4.00;;
62475;SDS011;50739;45.670;11.936;2023-06-26T11:01:45;5.13;;;3.83;;
62475;SDS011;50739;45.670;11.936;2023-06-26T11:06:50;4.65;;;3.95;;
62475;SDS011;50739;45.670;11.936;2023-06-26T11:12:33;4.40;;;3.58;;
62475;SDS011;50739;45.670;11.936;2023-06-26T11:17:37;5.28;;;3.85;;
62475;SDS011;50739;45.670;11.936;2023-06-26T11:22:42;6.50;;;4.43;;
62475;SDS011;50739;45.670;11.936;2023-06-26T11:27:45;5.65;;;4.85;;
62475;SDS011;50739;45.670;11.936;2023-06-26T11:32:47;6.53;;;4.43;;
62475;SDS011;50739;45.670;11.936;2023-06-26T11:37:51;6.25;;;4.75;;
62475;SDS011;50739;45.670;11.936;2023-06-26T11:42:57;6.60;;;4.50;;
62475;SDS011;50739;45.670;11.936;2023-06-26T11:48:00;6.18;;;4.70;;
62475;SDS011;50739;45.670;11.936;2023-06-26T11:53:04;6.07;;;4.47;;
62475;SDS011;50739;45.670;11.936;2023-06-26T11:58:08;6.75;;;4.43;;
62475;SDS011;50739;45.670;11.936;2023-06-26T12:03:10;5.60;;;4.05;;
62475;SDS011;50739;45.670;11.936;2023-06-26T12:08:15;6.13;;;4.35;;
62475;SDS011;50739;45.670;11.936;2023-06-26T12:13:17;6.60;;;4.30;;
62475;SDS011;50739;45.670;11.936;2023-06-26T12:18:19;5.70;;;4.40;;
62475;SDS011;50739;45.670;11.936;2023-06-26T12:23:33;5.82;;;4.22;;
62475;SDS011;50739;45.670;11.936;2023-06-26T12:28:36;5.60;;;4.47;;
62475;SDS011;50739;45.670;11.936;2023-06-26T12:33:39;8.82;;;4.60;;
62475;SDS011;50739;45.670;11.936;2023-06-26T12:38:44;5.22;;;4.70;;
62475;SDS011;50739;45.670;11.936;2023-06-26T12:43:48;6.18;;;4.72;;
62475;SDS011;50739;45.670;11.936;2023-06-26T12:48:50;5.25;;;4.75;;
62475;SDS011;50739;45.670;11.936;2023-06-26T12:53:58;5.90;;;4.63;;
62475;SDS011;50739;45.670;11.936;2023-06-26T12:59:00;5.35;;;4.85;;
62475;SDS011;50739;45.670;11.936;2023-06-26T13:04:02;6.57;;;4.60;;
62475;SDS011;50739;45.670;11.936;2023-06-26T13:09:07;7.15;;;4.70;;
62475;SDS011;50739;45.670;11.936;2023-06-26T13:14:11;7.63;;;4.47;;
62475;SDS011;50739;45.670;11.936;2023-06-26T13:19:14;7.93;;;4.60;;
62475;SDS011;50739;45.670;11.936;2023-06-26T13:24:18;6.93;;;4.18;;
62475;SDS011;50739;45.670;11.936;2023-06-26T13:29:20;7.00;;;4.70;;
62475;SDS011;50739;45.670;11.936;2023-06-26T13:34:23;5.23;;;4.00;;
62475;SDS011;50739;45.670;11.936;2023-06-26T13:39:29;6.00;;;4.00;;
62475;SDS011;50739;45.670;11.936;2023-06-26T13:44:31;4.95;;;4.00;;
62475;SDS011;50739;45.670;11.936;2023-06-26T13:49:34;6.85;;;4.18;;
62475;SDS011;50739;45.670;11.936;2023-06-26T13:54:38;6.03;;;4.27;;
62475;SDS011;50739;45.670;11.936;2023-06-26T13:59:40;5.32;;;4.30;;
62475;SDS011;50739;45.670;11.936;2023-06-26T14:04:43;6.00;;;4.63;;
62475;SDS011;50739;45.670;11.936;2023-06-26T14:09:46;5.47;;;4.10;;
62475;SDS011;50739;45.670;11.936;2023-06-26T14:14:49;4.50;;;4.10;;
62475;SDS011;50739;45.670;11.936;2023-06-26T14:19:51;5.85;;;4.00;;
62475;SDS011;50739;45.670;11.936;2023-06-26T14:24:55;4.75;;;4.22;;
62475;SDS011;50739;45.670;11.936;2023-06-26T14:29:57;5.30;;;4.32;;
62475;SDS011;50739;45.670;11.936;2023-06-26T14:35:00;5.45;;;4.10;;
62475;SDS011;50739;45.670;11.936;2023-06-26T14:40:04;5.60;;;4.10;;
62475;SDS011;50739;45.670;11.936;2023-06-26T14:45:08;6.40;;;4.60;;
62475;SDS011;50739;45.670;11.936;2023-06-26T14:50:11;6.07;;;4.23;;
62475;SDS011;50739;45.670;11.936;2023-06-26T14:55:15;4.72;;;4.00;;
62475;SDS011;50739;45.670;11.936;2023-06-26T15:00:18;5.43;;;4.18;;
62475;SDS011;50739;45.670;11.936;2023-06-26T15:05:20;4.85;;;3.67;;
62475;SDS011;50739;45.670;11.936;2023-06-26T15:10:24;5.05;;;4.10;;
62475;SDS011;50739;45.670;11.936;2023-06-26T15:15:26;4.45;;;3.80;;
62475;SDS011;50739;45.670;11.936;2023-06-26T15:20:29;4.38;;;3.58;;
62475;SDS011;50739;45.670;11.936;2023-06-26T15:25:33;6.05;;;3.38;;
62475;SDS011;50739;45.670;11.936;2023-06-26T15:30:37;5.28;;;3.40;;
62475;SDS011;50739;45.670;11.936;2023-06-26T15:35:39;4.10;;;3.70;;
62475;SDS011;50739;45.670;11.936;2023-06-26T15:40:43;3.70;;;3.40;;
62475;SDS011;50739;45.670;11.936;2023-06-26T15:45:45;5.78;;;3.60;;
62475;SDS011;50739;45.670;11.936;2023-06-26T15:50:47;6.70;;;3.80;;
62475;SDS011;50739;45.670;11.936;2023-06-26T15:55:51;7.28;;;4.05;;
62475;SDS011;50739;45.670;11.936;2023-06-26T16:00:53;6.17;;;4.00;;
62475;SDS011;50739;45.670;11.936;2023-06-26T16:05:56;5.90;;;4.20;;
62475;SDS011;50739;45.670;11.936;2023-06-26T16:11:00;6.80;;;4.77;;
62475;SDS011;50739;45.670;11.936;2023-06-26T16:16:03;5.07;;;3.90;;
62475;SDS011;50739;45.670;11.936;2023-06-26T16:21:06;6.40;;;4.00;;
62475;SDS011;50739;45.670;11.936;2023-06-26T16:26:09;4.22;;;3.83;;
62475;SDS011;50739;45.670;11.936;2023-06-26T16:31:12;6.43;;;4.43;;
62475;SDS011;50739;45.670;11.936;2023-06-26T16:36:14;5.20;;;3.90;;
62475;SDS011;50739;45.670;11.936;2023-06-26T16:41:18;5.80;;;4.43;;
62475;SDS011;50739;45.670;11.936;2023-06-26T16:46:20;5.10;;;4.55;;
62475;SDS011;50739;45.670;11.936;2023-06-26T16:51:22;5.80;;;4.20;;
62475;SDS011;50739;45.670;11.936;2023-06-26T16:56:26;5.13;;;4.15;;
62475;SDS011;50739;45.670;11.936;2023-06-26T17:01:28;6.78;;;4.50;;
62475;SDS011;50739;45.670;11.936;2023-06-26T17:06:31;9.40;;;4.43;;
62475;SDS011;50739;45.670;11.936;2023-06-26T17:11:34;5.57;;;3.92;;
62475;SDS011;50739;45.670;11.936;2023-06-26T17:16:37;5.85;;;4.05;;
62475;SDS011;50739;45.670;11.936;2023-06-26T17:21:39;4.90;;;4.00;;
62475;SDS011;50739;45.670;11.936;2023-06-26T17:26:43;4.82;;;3.88;;
62475;SDS011;50739;45.670;11.936;2023-06-26T17:31:45;5.47;;;3.83;;
62475;SDS011;50739;45.670;11.936;2023-06-26T17:36:47;5.30;;;3.63;;
62475;SDS011;50739;45.670;11.936;2023-06-26T17:41:51;6.23;;;3.90;;
62475;SDS011;50739;45.670;11.936;2023-06-26T17:46:53;5.63;;;4.60;;
62475;SDS011;50739;45.670;11.936;2023-06-26T17:51:56;5.45;;;3.97;;
62475;SDS011;50739;45.670;11.936;2023-06-26T17:56:59;5.45;;;3.90;;
62475;SDS011;50739;45.670;11.936;2023-06-26T18:02:02;5.35;;;4.05;;
62475;SDS011;50739;45.670;11.936;2023-06-26T18:07:04;7.07;;;4.32;;
62475;SDS011;50739;45.670;11.936;2023-06-26T18:12:09;5.07;;;4.20;;
62475;SDS011;50739;45.670;11.936;2023-06-26T18:17:13;5.40;;;4.00;;
62475;SDS011;50739;45.670;11.936;2023-06-26T18:22:15;9.25;;;4.30;;
62475;SDS011;50739;45.670;11.936;2023-06-26T18:27:19;5.70;;;4.20;;
62475;SDS011;50739;45.670;11.936;2023-06-26T18:32:21;6.13;;;4.23;;
62475;SDS011;50739;45.670;11.936;2023-06-26T18:37:24;6.07;;;4.03;;
62475;SDS011;50739;45.670;11.936;2023-06-26T18:42:28;6.63;;;4.10;;
62475;SDS011;50739;45.670;11.936;2023-06-26T18:47:30;7.27;;;4.43;;
62475;SDS011;50739;45.670;11.936;2023-06-26T18:52:32;7.07;;;4.20;;
62475;SDS011;50739;45.670;11.936;2023-06-26T18:57:36;4.70;;;4.20;;
62475;SDS011;50739;45.670;11.936;2023-06-26T19:02:39;7.10;;;4.20;;
62475;SDS011;50739;45.670;11.936;2023-06-26T19:07:41;4.80;;;4.25;;
62475;SDS011;50739;45.670;11.936;2023-06-26T19:12:45;5.13;;;4.00;;
62475;SDS011;50739;45.670;11.936;2023-06-26T19:17:49;6.30;;;4.10;;
62475;SDS011;50739;45.670;11.936;2023-06-26T19:22:51;7.20;;;4.32;;
62475;SDS011;50739;45.670;11.936;2023-06-26T19:27:57;10.13;;;4.93;;
62475;SDS011;50739;45.670;11.936;2023-06-26T19:33:00;7.37;;;4.90;;
62475;SDS011;50739;45.670;11.936;2023-06-26T19:38:02;10.47;;;5.33;;
62475;SDS011;50739;45.670;11.936;2023-06-26T19:43:10;7.13;;;4.90;;
62475;SDS011;50739;45.670;11.936;2023-06-26T19:48:12;6.78;;;4.50;;
62475;SDS011;50739;45.670;11.936;2023-06-26T19:53:14;7.70;;;4.33;;
62475;SDS011;50739;45.670;11.936;2023-06-26T19:58:18;8.87;;;4.70;;
62475;SDS011;50739;45.670;11.936;2023-06-26T20:03:20;7.57;;;4.70;;
62475;SDS011;50739;45.670;11.936;2023-06-26T20:08:23;5.75;;;3.92;;
62475;SDS011;50739;45.670;11.936;2023-06-26T20:13:27;6.13;;;4.35;;
62475;SDS011;50739;45.670;11.936;2023-06-26T20:18:29;9.25;;;4.75;;
62475;SDS011;50739;45.670;11.936;2023-06-26T20:23:32;4.82;;;4.32;;
62475;SDS011;50739;45.670;11.936;2023-06-26T20:28:35;7.65;;;4.88;;
62475;SDS011;50739;45.670;11.936;2023-06-26T20:33:38;6.90;;;4.60;;
62475;SDS011;50739;45.670;11.936;2023-06-26T20:38:40;6.00;;;4.30;;
62475;SDS011;50739;45.670;11.936;2023-06-26T20:43:44;7.63;;;4.87;;
62475;SDS011;50739;45.670;11.936;2023-06-26T20:48:47;8.00;;;4.80;;
62475;SDS011;50739;45.670;11.936;2023-06-26T20:53:50;7.50;;;4.83;;
62475;SDS011;50739;45.670;11.936;2023-06-26T20:58:54;6.95;;;4.88;;
62475;SDS011;50739;45.670;11.936;2023-06-26T21:03:57;5.97;;;4.63;;
62475;SDS011;50739;45.670;11.936;2023-06-26T21:08:59;5.93;;;4.80;;
62475;SDS011;50739;45.670;11.936;2023-06-26T21:14:03;6.93;;;5.00;;
62475;SDS011;50739;45.670;11.936;2023-06-26T21:19:05;7.30;;;5.00;;
62475;SDS011;50739;45.670;11.936;2023-06-26T21:24:07;6.60;;;5.55;;
62475;SDS011;50739;45.670;11.936;2023-06-26T21:29:11;6.80;;;5.03;;
62475;SDS011;50739;45.670;11.936;2023-06-26T21:34:13;9.70;;;6.13;;
62475;SDS011;50739;45.670;11.936;2023-06-26T21:39:16;8.17;;;5.80;;
62475;SDS011;50739;45.670;11.936;2023-06-26T21:44:20;7.90;;;5.63;;
62475;SDS011;50739;45.670;11.936;2023-06-26T21:49:22;9.43;;;5.50;;
62475;SDS011;50739;45.670;11.936;2023-06-26T21:54:24;6.95;;;5.68;;
62475;SDS011;50739;45.670;11.936;2023-06-26T21:59:28;8.25;;;5.95;;
62475;SDS011;50739;45.670;11.936;2023-06-26T22:04:30;7.70;;;5.70;;
62475;SDS011;50739;45.670;11.936;2023-06-26T22:09:32;9.93;;;5.90;;
62475;SDS011;50739;45.670;11.936;2023-06-26T22:14:36;9.10;;;6.00;;
62475;SDS011;50739;45.670;11.936;2023-06-26T22:19:39;9.55;;;6.20;;
62475;SDS011;50739;45.670;11.936;2023-06-26T22:24:41;8.45;;;5.70;;
62475;SDS011;50739;45.670;11.936;2023-06-26T22:29:45;11.35;;;6.50;;
62475;SDS011;50739;45.670;11.936;2023-06-26T22:34:47;9.20;;;7.03;;
62475;SDS011;50739;45.670;11.936;2023-06-26T22:39:50;7.33;;;5.90;;
62475;SDS011;50739;45.670;11.936;2023-06-26T22:44:54;10.17;;;7.50;;
62475;SDS011;50739;45.670;11.936;2023-06-26T22:49:56;12.45;;;7.93;;
62475;SDS011;50739;45.670;11.936;2023-06-26T22:54:59;12.48;;;8.38;;
62475;SDS011;50739;45.670;11.936;2023-06-26T23:00:04;11.77;;;7.78;;
62475;SDS011;50739;45.670;11.936;2023-06-26T23:05:10;10.67;;;8.40;;
62475;SDS011;50739;45.670;11.936;2023-06-26T23:10:13;11.63;;;8.50;;
62475;SDS011;50739;45.670;11.936;2023-06-26T23:15:16;11.68;;;8.88;;
62475;SDS011;50739;45.670;11.936;2023-06-26T23:20:19;11.63;;;8.77;;
62475;SDS011;50739;45.670;11.936;2023-06-26T23:25:21;13.90;;;9.15;;
62475;SDS011;50739;45.670;11.936;2023-06-26T23:30:35;12.75;;;9.45;;
62475;SDS011;50739;45.670;11.936;2023-06-26T23:35:42;15.17;;;10.43;;
62475;SDS011;50739;45.670;11.936;2023-06-26T23:40:47;13.03;;;8.57;;
62475;SDS011;50739;45.670;11.936;2023-06-26T23:45:50;14.48;;;10.57;;
62475;SDS011;50739;45.670;11.936;2023-06-26T23:50:53;12.38;;;9.85;;
62475;SDS011;50739;45.670;11.936;2023-06-26T23:55:56;15.15;;;10.93;;
